sensor_id;sensor_type;location;lat;lon;timestamp;P1;durP1;ratioP1;P2;durP2;ratioP2
5912;SDS011;2982;42.684;23.356;2023-05-19T00:01:11;6.57;;;6.07;;
5912;SDS011;2982;42.684;23.356;2023-05-19T00:03:40;6.00;;;5.45;;
5912;SDS011;2982;42.684;23.356;2023-05-19T00:06:23;6.32;;;5.82;;
5912;SDS011;2982;42.684;23.356;2023-05-19T00:08:51;6.03;;;5.53;;
5912;SDS011;2982;42.684;23.356;2023-05-19T00:11:21;11.57;;;5.75;;
5912;SDS011;2982;42.684;23.356;2023-05-19T00:13:46;5.88;;;5.47;;
5912;SDS011;2982;42.684;23.356;2023-05-19T00:16:12;6.63;;;6.07;;
5912;SDS011;2982;42.684;23.356;2023-05-19T00:18:38;6.22;;;5.82;;
5912;SDS011;2982;42.684;23.356;2023-05-19T00:21:03;5.78;;;5.38;;
5912;SDS011;2982;42.684;23.356;2023-05-19T00:23:28;5.80;;;5.40;;
5912;SDS011;2982;42.684;23.356;2023-05-19T00:25:53;6.50;;;5.90;;
5912;SDS011;2982;42.684;23.356;2023-05-19T00:28:19;6.35;;;5.78;;
5912;SDS011;2982;42.684;23.356;2023-05-19T00:30:44;6.13;;;5.72;;
5912;SDS011;2982;42.684;23.356;2023-05-19T00:33:09;6.28;;;5.78;;
5912;SDS011;2982;42.684;23.356;2023-05-19T00:35:35;8.60;;;5.88;;
5912;SDS011;2982;42.684;23.356;2023-05-19T00:38:00;5.82;;;5.32;;
5912;SDS011;2982;42.684;23.356;2023-05-19T00:40:25;6.60;;;5.90;;
5912;SDS011;2982;42.684;23.356;2023-05-19T00:42:52;6.30;;;5.82;;
5912;SDS011;2982;42.684;23.356;2023-05-19T00:45:17;6.15;;;5.65;;
5912;SDS011;2982;42.684;23.356;2023-05-19T00:47:42;6.63;;;6.13;;
5912;SDS011;2982;42.684;23.356;2023-05-19T00:50:08;6.57;;;5.97;;
5912;SDS011;2982;42.684;23.356;2023-05-19T00:52:33;6.05;;;5.57;;
5912;SDS011;2982;42.684;23.356;2023-05-19T00:54:59;6.95;;;6.25;;
5912;SDS011;2982;42.684;23.356;2023-05-19T00:57:24;7.47;;;6.78;;
5912;SDS011;2982;42.684;23.356;2023-05-19T00:59:49;8.27;;;7.00;;
5912;SDS011;2982;42.684;23.356;2023-05-19T01:02:15;6.75;;;6.13;;
5912;SDS011;2982;42.684;23.356;2023-05-19T01:04:40;8.10;;;7.20;;
5912;SDS011;2982;42.684;23.356;2023-05-19T01:07:07;7.35;;;6.75;;
5912;SDS011;2982;42.684;23.356;2023-05-19T01:09:32;7.80;;;7.20;;
5912;SDS011;2982;42.684;23.356;2023-05-19T01:11:58;7.68;;;7.07;;
5912;SDS011;2982;42.684;23.356;2023-05-19T01:14:25;9.00;;;7.55;;
5912;SDS011;2982;42.684;23.356;2023-05-19T01:17:02;7.45;;;6.95;;
5912;SDS011;2982;42.684;23.356;2023-05-19T01:19:37;8.05;;;7.35;;
5912;SDS011;2982;42.684;23.356;2023-05-19T01:30:53;9.25;;;8.30;;
5912;SDS011;2982;42.684;23.356;2023-05-19T01:33:21;9.15;;;8.30;;
5912;SDS011;2982;42.684;23.356;2023-05-19T01:35:48;9.65;;;8.85;;
5912;SDS011;2982;42.684;23.356;2023-05-19T01:38:15;9.98;;;9.18;;
5912;SDS011;2982;42.684;23.356;2023-05-19T01:40:42;12.40;;;9.73;;
5912;SDS011;2982;42.684;23.356;2023-05-19T01:43:10;11.45;;;9.05;;
5912;SDS011;2982;42.684;23.356;2023-05-19T01:45:39;9.85;;;9.02;;
5912;SDS011;2982;42.684;23.356;2023-05-19T01:48:06;10.45;;;9.48;;
5912;SDS011;2982;42.684;23.356;2023-05-19T01:50:31;11.38;;;8.88;;
5912;SDS011;2982;42.684;23.356;2023-05-19T01:52:57;11.40;;;10.27;;
5912;SDS011;2982;42.684;23.356;2023-05-19T01:55:23;11.23;;;9.35;;
5912;SDS011;2982;42.684;23.356;2023-05-19T01:58:06;9.70;;;8.98;;
5912;SDS011;2982;42.684;23.356;2023-05-19T02:03:31;10.38;;;9.38;;
5912;SDS011;2982;42.684;23.356;2023-05-19T02:06:24;11.15;;;10.10;;
5912;SDS011;2982;42.684;23.356;2023-05-19T02:12:02;10.90;;;9.80;;
5912;SDS011;2982;42.684;23.356;2023-05-19T02:14:38;11.55;;;10.35;;
5912;SDS011;2982;42.684;23.356;2023-05-19T02:17:09;11.98;;;10.80;;
5912;SDS011;2982;42.684;23.356;2023-05-19T02:19:38;12.57;;;11.27;;
5912;SDS011;2982;42.684;23.356;2023-05-19T02:22:03;11.52;;;10.32;;
5912;SDS011;2982;42.684;23.356;2023-05-19T02:24:29;11.45;;;10.45;;
5912;SDS011;2982;42.684;23.356;2023-05-19T02:26:54;11.93;;;10.25;;
5912;SDS011;2982;42.684;23.356;2023-05-19T02:29:20;10.88;;;9.85;;
5912;SDS011;2982;42.684;23.356;2023-05-19T02:31:45;11.75;;;10.55;;
5912;SDS011;2982;42.684;23.356;2023-05-19T02:34:11;11.38;;;10.18;;
5912;SDS011;2982;42.684;23.356;2023-05-19T02:36:37;13.13;;;9.80;;
5912;SDS011;2982;42.684;23.356;2023-05-19T02:39:04;11.02;;;9.93;;
5912;SDS011;2982;42.684;23.356;2023-05-19T02:41:29;12.43;;;11.23;;
5912;SDS011;2982;42.684;23.356;2023-05-19T02:43:54;13.73;;;11.70;;
5912;SDS011;2982;42.684;23.356;2023-05-19T02:46:20;13.45;;;12.13;;
5912;SDS011;2982;42.684;23.356;2023-05-19T02:48:45;11.95;;;10.75;;
5912;SDS011;2982;42.684;23.356;2023-05-19T02:51:10;12.43;;;11.13;;
5912;SDS011;2982;42.684;23.356;2023-05-19T02:53:36;14.85;;;11.98;;
5912;SDS011;2982;42.684;23.356;2023-05-19T02:56:01;17.15;;;12.13;;
5912;SDS011;2982;42.684;23.356;2023-05-19T02:58:27;13.73;;;9.82;;
5912;SDS011;2982;42.684;23.356;2023-05-19T03:00:52;15.85;;;11.02;;
5912;SDS011;2982;42.684;23.356;2023-05-19T03:03:17;11.43;;;10.15;;
5912;SDS011;2982;42.684;23.356;2023-05-19T03:05:42;15.50;;;11.30;;
5912;SDS011;2982;42.684;23.356;2023-05-19T03:08:08;13.10;;;11.15;;
5912;SDS011;2982;42.684;23.356;2023-05-19T03:10:33;11.18;;;10.07;;
5912;SDS011;2982;42.684;23.356;2023-05-19T03:12:59;12.27;;;10.98;;
5912;SDS011;2982;42.684;23.356;2023-05-19T03:15:24;11.52;;;10.27;;
5912;SDS011;2982;42.684;23.356;2023-05-19T03:17:49;14.10;;;11.82;;
5912;SDS011;2982;42.684;23.356;2023-05-19T03:20:15;12.40;;;10.98;;
5912;SDS011;2982;42.684;23.356;2023-05-19T03:22:40;11.45;;;10.30;;
5912;SDS011;2982;42.684;23.356;2023-05-19T03:25:05;13.57;;;11.30;;
5912;SDS011;2982;42.684;23.356;2023-05-19T03:27:31;14.35;;;12.32;;
5912;SDS011;2982;42.684;23.356;2023-05-19T03:29:56;17.95;;;12.55;;
5912;SDS011;2982;42.684;23.356;2023-05-19T03:32:21;14.02;;;12.02;;
5912;SDS011;2982;42.684;23.356;2023-05-19T03:34:47;13.18;;;11.80;;
5912;SDS011;2982;42.684;23.356;2023-05-19T03:37:12;13.57;;;11.75;;
5912;SDS011;2982;42.684;23.356;2023-05-19T03:39:37;13.80;;;12.23;;
5912;SDS011;2982;42.684;23.356;2023-05-19T03:42:03;14.52;;;12.95;;
5912;SDS011;2982;42.684;23.356;2023-05-19T03:44:28;14.82;;;12.88;;
5912;SDS011;2982;42.684;23.356;2023-05-19T03:46:54;15.93;;;12.43;;
5912;SDS011;2982;42.684;23.356;2023-05-19T03:49:19;16.88;;;13.23;;
5912;SDS011;2982;42.684;23.356;2023-05-19T03:51:44;14.57;;;12.48;;
5912;SDS011;2982;42.684;23.356;2023-05-19T03:54:10;12.77;;;11.05;;
5912;SDS011;2982;42.684;23.356;2023-05-19T03:56:37;14.07;;;12.68;;
5912;SDS011;2982;42.684;23.356;2023-05-19T03:59:03;12.40;;;11.18;;
5912;SDS011;2982;42.684;23.356;2023-05-19T04:01:29;12.95;;;11.68;;
5912;SDS011;2982;42.684;23.356;2023-05-19T04:03:54;13.85;;;11.05;;
5912;SDS011;2982;42.684;23.356;2023-05-19T04:06:19;12.07;;;10.80;;
5912;SDS011;2982;42.684;23.356;2023-05-19T04:08:45;12.38;;;11.13;;
5912;SDS011;2982;42.684;23.356;2023-05-19T04:11:10;12.63;;;11.05;;
5912;SDS011;2982;42.684;23.356;2023-05-19T04:13:35;11.60;;;10.00;;
5912;SDS011;2982;42.684;23.356;2023-05-19T04:16:01;11.45;;;10.32;;
5912;SDS011;2982;42.684;23.356;2023-05-19T04:18:26;11.45;;;10.45;;
5912;SDS011;2982;42.684;23.356;2023-05-19T04:20:51;10.65;;;9.55;;
5912;SDS011;2982;42.684;23.356;2023-05-19T04:23:16;9.80;;;8.98;;
5912;SDS011;2982;42.684;23.356;2023-05-19T04:25:42;11.43;;;9.32;;
5912;SDS011;2982;42.684;23.356;2023-05-19T04:28:07;9.88;;;9.07;;
5912;SDS011;2982;42.684;23.356;2023-05-19T04:30:32;9.35;;;7.90;;
5912;SDS011;2982;42.684;23.356;2023-05-19T04:32:58;10.70;;;9.25;;
5912;SDS011;2982;42.684;23.356;2023-05-19T04:35:23;8.75;;;8.00;;
5912;SDS011;2982;42.684;23.356;2023-05-19T04:37:48;9.68;;;8.88;;
5912;SDS011;2982;42.684;23.356;2023-05-19T04:40:14;10.85;;;9.75;;
5912;SDS011;2982;42.684;23.356;2023-05-19T04:42:39;9.75;;;8.90;;
5912;SDS011;2982;42.684;23.356;2023-05-19T04:45:04;9.80;;;9.05;;
5912;SDS011;2982;42.684;23.356;2023-05-19T04:47:30;9.18;;;8.38;;
5912;SDS011;2982;42.684;23.356;2023-05-19T04:49:55;9.50;;;8.70;;
5912;SDS011;2982;42.684;23.356;2023-05-19T04:52:22;10.90;;;9.05;;
5912;SDS011;2982;42.684;23.356;2023-05-19T04:54:47;15.35;;;9.38;;
5912;SDS011;2982;42.684;23.356;2023-05-19T04:57:12;9.05;;;8.25;;
5912;SDS011;2982;42.684;23.356;2023-05-19T04:59:37;9.18;;;8.45;;
5912;SDS011;2982;42.684;23.356;2023-05-19T05:02:03;9.50;;;8.60;;
5912;SDS011;2982;42.684;23.356;2023-05-19T05:04:28;8.35;;;7.65;;
5912;SDS011;2982;42.684;23.356;2023-05-19T05:06:53;9.68;;;8.95;;
5912;SDS011;2982;42.684;23.356;2023-05-19T05:09:18;9.88;;;8.88;;
5912;SDS011;2982;42.684;23.356;2023-05-19T05:11:44;12.05;;;9.25;;
5912;SDS011;2982;42.684;23.356;2023-05-19T05:14:09;9.27;;;8.10;;
5912;SDS011;2982;42.684;23.356;2023-05-19T05:16:35;9.10;;;8.40;;
5912;SDS011;2982;42.684;23.356;2023-05-19T05:19:01;9.10;;;8.27;;
5912;SDS011;2982;42.684;23.356;2023-05-19T05:21:27;9.90;;;8.88;;
5912;SDS011;2982;42.684;23.356;2023-05-19T05:23:53;12.85;;;8.68;;
5912;SDS011;2982;42.684;23.356;2023-05-19T05:26:19;9.48;;;8.68;;
5912;SDS011;2982;42.684;23.356;2023-05-19T05:28:45;15.05;;;9.10;;
5912;SDS011;2982;42.684;23.356;2023-05-19T05:31:10;15.90;;;10.48;;
5912;SDS011;2982;42.684;23.356;2023-05-19T05:33:36;9.23;;;8.52;;
5912;SDS011;2982;42.684;23.356;2023-05-19T05:36:02;10.40;;;9.40;;
5912;SDS011;2982;42.684;23.356;2023-05-19T05:38:28;44.40;;;22.80;;
5912;SDS011;2982;42.684;23.356;2023-05-19T05:40:53;27.42;;;16.67;;
5912;SDS011;2982;42.684;23.356;2023-05-19T05:43:18;20.58;;;13.20;;
5912;SDS011;2982;42.684;23.356;2023-05-19T05:45:43;10.82;;;8.98;;
5912;SDS011;2982;42.684;23.356;2023-05-19T05:48:09;10.32;;;8.68;;
5912;SDS011;2982;42.684;23.356;2023-05-19T05:50:35;9.00;;;7.97;;
5912;SDS011;2982;42.684;23.356;2023-05-19T05:53:00;10.32;;;8.40;;
5912;SDS011;2982;42.684;23.356;2023-05-19T05:55:27;12.73;;;9.95;;
5912;SDS011;2982;42.684;23.356;2023-05-19T05:57:53;31.73;;;16.00;;
5912;SDS011;2982;42.684;23.356;2023-05-19T06:00:18;19.55;;;13.80;;
5912;SDS011;2982;42.684;23.356;2023-05-19T06:02:44;9.63;;;8.48;;
5912;SDS011;2982;42.684;23.356;2023-05-19T06:05:10;8.27;;;7.50;;
5912;SDS011;2982;42.684;23.356;2023-05-19T06:07:36;8.68;;;7.97;;
5912;SDS011;2982;42.684;23.356;2023-05-19T06:10:01;9.05;;;7.65;;
5912;SDS011;2982;42.684;23.356;2023-05-19T06:12:26;8.98;;;7.85;;
5912;SDS011;2982;42.684;23.356;2023-05-19T06:14:52;8.40;;;7.63;;
5912;SDS011;2982;42.684;23.356;2023-05-19T06:17:17;9.93;;;8.65;;
5912;SDS011;2982;42.684;23.356;2023-05-19T06:19:42;7.90;;;7.07;;
5912;SDS011;2982;42.684;23.356;2023-05-19T06:22:07;7.63;;;7.07;;
5912;SDS011;2982;42.684;23.356;2023-05-19T06:24:33;7.78;;;7.18;;
5912;SDS011;2982;42.684;23.356;2023-05-19T06:26:58;7.82;;;6.97;;
5912;SDS011;2982;42.684;23.356;2023-05-19T06:29:23;9.32;;;6.43;;
5912;SDS011;2982;42.684;23.356;2023-05-19T06:31:48;8.48;;;6.40;;
5912;SDS011;2982;42.684;23.356;2023-05-19T06:34:14;6.00;;;5.60;;
5912;SDS011;2982;42.684;23.356;2023-05-19T06:36:39;9.38;;;5.05;;
5912;SDS011;2982;42.684;23.356;2023-05-19T06:39:04;6.80;;;4.90;;
5912;SDS011;2982;42.684;23.356;2023-05-19T06:41:29;5.32;;;4.88;;
5912;SDS011;2982;42.684;23.356;2023-05-19T06:43:55;7.90;;;5.40;;
5912;SDS011;2982;42.684;23.356;2023-05-19T06:46:20;5.30;;;5.00;;
5912;SDS011;2982;42.684;23.356;2023-05-19T06:48:45;6.40;;;5.82;;
5912;SDS011;2982;42.684;23.356;2023-05-19T06:51:12;7.05;;;6.57;;
5912;SDS011;2982;42.684;23.356;2023-05-19T06:53:37;6.07;;;5.38;;
5912;SDS011;2982;42.684;23.356;2023-05-19T06:56:02;6.40;;;5.90;;
5912;SDS011;2982;42.684;23.356;2023-05-19T06:58:28;10.65;;;7.22;;
5912;SDS011;2982;42.684;23.356;2023-05-19T07:00:53;6.60;;;5.30;;
5912;SDS011;2982;42.684;23.356;2023-05-19T07:03:18;5.78;;;5.38;;
5912;SDS011;2982;42.684;23.356;2023-05-19T07:05:44;6.18;;;5.68;;
5912;SDS011;2982;42.684;23.356;2023-05-19T07:08:09;6.90;;;5.70;;
5912;SDS011;2982;42.684;23.356;2023-05-19T07:10:34;6.90;;;6.32;;
5912;SDS011;2982;42.684;23.356;2023-05-19T07:12:59;6.30;;;5.80;;
5912;SDS011;2982;42.684;23.356;2023-05-19T07:15:25;10.93;;;5.63;;
5912;SDS011;2982;42.684;23.356;2023-05-19T07:17:50;6.10;;;5.63;;
5912;SDS011;2982;42.684;23.356;2023-05-19T07:20:15;5.82;;;5.32;;
5912;SDS011;2982;42.684;23.356;2023-05-19T07:22:40;6.47;;;5.30;;
5912;SDS011;2982;42.684;23.356;2023-05-19T07:25:06;9.32;;;5.40;;
5912;SDS011;2982;42.684;23.356;2023-05-19T07:27:32;8.10;;;5.82;;
5912;SDS011;2982;42.684;23.356;2023-05-19T07:29:57;6.68;;;5.63;;
5912;SDS011;2982;42.684;23.356;2023-05-19T07:32:23;6.90;;;5.10;;
5912;SDS011;2982;42.684;23.356;2023-05-19T07:34:48;7.95;;;6.03;;
5912;SDS011;2982;42.684;23.356;2023-05-19T07:37:14;7.03;;;6.22;;
5912;SDS011;2982;42.684;23.356;2023-05-19T07:39:39;10.68;;;6.30;;
5912;SDS011;2982;42.684;23.356;2023-05-19T07:42:04;5.97;;;5.47;;
5912;SDS011;2982;42.684;23.356;2023-05-19T07:44:30;7.03;;;5.95;;
5912;SDS011;2982;42.684;23.356;2023-05-19T07:46:55;13.98;;;6.35;;
5912;SDS011;2982;42.684;23.356;2023-05-19T07:49:21;6.10;;;5.68;;
5912;SDS011;2982;42.684;23.356;2023-05-19T07:51:46;8.93;;;5.97;;
5912;SDS011;2982;42.684;23.356;2023-05-19T07:54:11;6.75;;;6.15;;
5912;SDS011;2982;42.684;23.356;2023-05-19T07:56:37;6.68;;;6.07;;
5912;SDS011;2982;42.684;23.356;2023-05-19T07:59:02;6.13;;;5.63;;
5912;SDS011;2982;42.684;23.356;2023-05-19T08:01:28;6.88;;;6.28;;
5912;SDS011;2982;42.684;23.356;2023-05-19T08:03:54;8.07;;;7.43;;
5912;SDS011;2982;42.684;23.356;2023-05-19T08:06:19;7.80;;;7.18;;
5912;SDS011;2982;42.684;23.356;2023-05-19T08:08:44;10.00;;;7.28;;
5912;SDS011;2982;42.684;23.356;2023-05-19T08:11:10;9.25;;;7.85;;
5912;SDS011;2982;42.684;23.356;2023-05-19T08:13:35;8.43;;;6.93;;
5912;SDS011;2982;42.684;23.356;2023-05-19T08:16:00;7.85;;;7.25;;
5912;SDS011;2982;42.684;23.356;2023-05-19T08:18:25;9.73;;;6.97;;
5912;SDS011;2982;42.684;23.356;2023-05-19T08:20:51;8.25;;;7.50;;
5912;SDS011;2982;42.684;23.356;2023-05-19T08:23:16;9.35;;;7.40;;
5912;SDS011;2982;42.684;23.356;2023-05-19T08:25:42;13.10;;;8.05;;
5912;SDS011;2982;42.684;23.356;2023-05-19T08:28:08;7.90;;;7.03;;
5912;SDS011;2982;42.684;23.356;2023-05-19T08:30:34;7.97;;;7.22;;
5912;SDS011;2982;42.684;23.356;2023-05-19T08:32:59;21.02;;;7.60;;
5912;SDS011;2982;42.684;23.356;2023-05-19T08:35:25;8.57;;;7.68;;
5912;SDS011;2982;42.684;23.356;2023-05-19T08:37:50;8.05;;;7.45;;
5912;SDS011;2982;42.684;23.356;2023-05-19T08:40:16;10.30;;;6.85;;
5912;SDS011;2982;42.684;23.356;2023-05-19T08:42:41;7.38;;;6.68;;
5912;SDS011;2982;42.684;23.356;2023-05-19T08:45:07;7.32;;;6.68;;
5912;SDS011;2982;42.684;23.356;2023-05-19T08:47:33;7.75;;;7.07;;
5912;SDS011;2982;42.684;23.356;2023-05-19T08:50:05;9.38;;;8.40;;
5912;SDS011;2982;42.684;23.356;2023-05-19T08:55:46;8.68;;;7.78;;
5912;SDS011;2982;42.684;23.356;2023-05-19T08:58:19;14.30;;;8.60;;
5912;SDS011;2982;42.684;23.356;2023-05-19T09:00:45;8.90;;;8.23;;
5912;SDS011;2982;42.684;23.356;2023-05-19T09:03:12;10.70;;;8.02;;
5912;SDS011;2982;42.684;23.356;2023-05-19T09:05:38;9.02;;;7.95;;
5912;SDS011;2982;42.684;23.356;2023-05-19T09:08:04;11.10;;;8.20;;
5912;SDS011;2982;42.684;23.356;2023-05-19T09:10:29;11.73;;;8.38;;
5912;SDS011;2982;42.684;23.356;2023-05-19T09:12:54;9.32;;;8.38;;
5912;SDS011;2982;42.684;23.356;2023-05-19T09:15:20;8.20;;;7.50;;
5912;SDS011;2982;42.684;23.356;2023-05-19T09:17:50;8.82;;;7.93;;
5912;SDS011;2982;42.684;23.356;2023-05-19T09:20:16;8.90;;;8.20;;
5912;SDS011;2982;42.684;23.356;2023-05-19T09:22:41;8.38;;;7.70;;
5912;SDS011;2982;42.684;23.356;2023-05-19T09:28:10;9.05;;;7.57;;
5912;SDS011;2982;42.684;23.356;2023-05-19T09:30:35;9.25;;;8.30;;
5912;SDS011;2982;42.684;23.356;2023-05-19T09:33:00;10.85;;;8.48;;
5912;SDS011;2982;42.684;23.356;2023-05-19T09:35:25;9.45;;;8.52;;
5912;SDS011;2982;42.684;23.356;2023-05-19T09:37:51;9.98;;;7.88;;
5912;SDS011;2982;42.684;23.356;2023-05-19T09:40:18;10.15;;;8.10;;
5912;SDS011;2982;42.684;23.356;2023-05-19T09:42:43;8.90;;;7.65;;
5912;SDS011;2982;42.684;23.356;2023-05-19T09:45:09;9.20;;;8.23;;
5912;SDS011;2982;42.684;23.356;2023-05-19T09:47:34;10.95;;;8.90;;
5912;SDS011;2982;42.684;23.356;2023-05-19T09:50:00;9.13;;;8.32;;
5912;SDS011;2982;42.684;23.356;2023-05-19T09:52:26;9.60;;;8.15;;
5912;SDS011;2982;42.684;23.356;2023-05-19T09:54:53;9.82;;;8.27;;
5912;SDS011;2982;42.684;23.356;2023-05-19T09:57:25;12.32;;;9.43;;
5912;SDS011;2982;42.684;23.356;2023-05-19T09:59:51;9.88;;;8.93;;
5912;SDS011;2982;42.684;23.356;2023-05-19T10:02:19;8.55;;;7.55;;
5912;SDS011;2982;42.684;23.356;2023-05-19T10:04:46;10.30;;;9.20;;
5912;SDS011;2982;42.684;23.356;2023-05-19T10:07:12;8.40;;;7.72;;
5912;SDS011;2982;42.684;23.356;2023-05-19T10:09:39;9.05;;;8.20;;
5912;SDS011;2982;42.684;23.356;2023-05-19T10:12:09;10.77;;;9.07;;
5912;SDS011;2982;42.684;23.356;2023-05-19T10:14:36;10.30;;;9.43;;
5912;SDS011;2982;42.684;23.356;2023-05-19T10:17:01;8.63;;;7.90;;
5912;SDS011;2982;42.684;23.356;2023-05-19T10:19:27;12.70;;;8.18;;
5912;SDS011;2982;42.684;23.356;2023-05-19T10:21:53;9.23;;;8.43;;
5912;SDS011;2982;42.684;23.356;2023-05-19T10:24:19;12.10;;;7.88;;
5912;SDS011;2982;42.684;23.356;2023-05-19T10:26:55;7.80;;;7.20;;
5912;SDS011;2982;42.684;23.356;2023-05-19T10:29:26;12.23;;;7.85;;
5912;SDS011;2982;42.684;23.356;2023-05-19T10:31:54;8.38;;;7.65;;
5912;SDS011;2982;42.684;23.356;2023-05-19T10:34:32;8.82;;;8.02;;
5912;SDS011;2982;42.684;23.356;2023-05-19T10:37:15;9.10;;;8.07;;
5912;SDS011;2982;42.684;23.356;2023-05-19T10:40:07;8.43;;;7.55;;
5912;SDS011;2982;42.684;23.356;2023-05-19T10:45:29;7.07;;;6.57;;
5912;SDS011;2982;42.684;23.356;2023-05-19T10:48:04;12.23;;;7.35;;
5912;SDS011;2982;42.684;23.356;2023-05-19T10:50:34;8.18;;;7.07;;
5912;SDS011;2982;42.684;23.356;2023-05-19T10:53:01;8.27;;;7.38;;
5912;SDS011;2982;42.684;23.356;2023-05-19T10:58:10;9.30;;;7.35;;
5912;SDS011;2982;42.684;23.356;2023-05-19T11:00:36;9.60;;;7.45;;
5912;SDS011;2982;42.684;23.356;2023-05-19T11:03:16;8.43;;;7.63;;
5912;SDS011;2982;42.684;23.356;2023-05-19T11:05:42;8.38;;;7.65;;
5912;SDS011;2982;42.684;23.356;2023-05-19T11:08:07;8.32;;;7.57;;
5912;SDS011;2982;42.684;23.356;2023-05-19T11:10:33;8.07;;;7.35;;
5912;SDS011;2982;42.684;23.356;2023-05-19T11:12:58;8.55;;;6.93;;
5912;SDS011;2982;42.684;23.356;2023-05-19T11:15:24;11.60;;;7.53;;
5912;SDS011;2982;42.684;23.356;2023-05-19T11:17:50;8.23;;;7.43;;
5912;SDS011;2982;42.684;23.356;2023-05-19T11:20:20;8.57;;;7.25;;
5912;SDS011;2982;42.684;23.356;2023-05-19T11:28:16;8.40;;;7.53;;
5912;SDS011;2982;42.684;23.356;2023-05-19T11:30:43;8.13;;;7.35;;
5912;SDS011;2982;42.684;23.356;2023-05-19T11:33:10;7.75;;;6.93;;
5912;SDS011;2982;42.684;23.356;2023-05-19T11:35:36;8.10;;;7.47;;
5912;SDS011;2982;42.684;23.356;2023-05-19T11:38:02;12.70;;;8.35;;
5912;SDS011;2982;42.684;23.356;2023-05-19T11:40:29;13.00;;;8.77;;
5912;SDS011;2982;42.684;23.356;2023-05-19T11:42:54;9.63;;;8.73;;
5912;SDS011;2982;42.684;23.356;2023-05-19T11:45:23;15.20;;;10.50;;
5912;SDS011;2982;42.684;23.356;2023-05-19T11:47:53;12.75;;;9.68;;
5912;SDS011;2982;42.684;23.356;2023-05-19T11:50:19;10.73;;;9.82;;
5912;SDS011;2982;42.684;23.356;2023-05-19T11:52:44;15.80;;;9.57;;
5912;SDS011;2982;42.684;23.356;2023-05-19T11:55:14;14.25;;;11.20;;
5912;SDS011;2982;42.684;23.356;2023-05-19T11:57:40;12.50;;;10.93;;
5912;SDS011;2982;42.684;23.356;2023-05-19T12:00:05;17.45;;;11.82;;
5912;SDS011;2982;42.684;23.356;2023-05-19T12:02:31;14.27;;;11.88;;
5912;SDS011;2982;42.684;23.356;2023-05-19T12:04:56;10.38;;;9.48;;
5912;SDS011;2982;42.684;23.356;2023-05-19T12:07:22;8.65;;;8.00;;
5912;SDS011;2982;42.684;23.356;2023-05-19T12:09:51;8.80;;;8.07;;
5912;SDS011;2982;42.684;23.356;2023-05-19T12:12:19;8.65;;;7.75;;
5912;SDS011;2982;42.684;23.356;2023-05-19T12:14:45;6.60;;;6.10;;
5912;SDS011;2982;42.684;23.356;2023-05-19T12:17:11;8.60;;;5.93;;
5912;SDS011;2982;42.684;23.356;2023-05-19T12:19:37;6.18;;;5.78;;
5912;SDS011;2982;42.684;23.356;2023-05-19T12:22:05;6.10;;;5.68;;
5912;SDS011;2982;42.684;23.356;2023-05-19T12:24:32;5.93;;;5.43;;
5912;SDS011;2982;42.684;23.356;2023-05-19T12:27:08;10.02;;;5.95;;
5912;SDS011;2982;42.684;23.356;2023-05-19T12:29:35;7.28;;;6.60;;
5912;SDS011;2982;42.684;23.356;2023-05-19T12:32:00;7.45;;;6.78;;
5912;SDS011;2982;42.684;23.356;2023-05-19T12:34:25;10.98;;;6.60;;
5912;SDS011;2982;42.684;23.356;2023-05-19T12:36:51;6.88;;;6.15;;
5912;SDS011;2982;42.684;23.356;2023-05-19T12:39:16;7.13;;;5.85;;
5912;SDS011;2982;42.684;23.356;2023-05-19T12:41:43;6.70;;;6.20;;
5912;SDS011;2982;42.684;23.356;2023-05-19T12:44:15;6.45;;;5.95;;
5912;SDS011;2982;42.684;23.356;2023-05-19T12:46:41;6.60;;;6.05;;
5912;SDS011;2982;42.684;23.356;2023-05-19T12:49:07;5.82;;;5.32;;
5912;SDS011;2982;42.684;23.356;2023-05-19T12:51:32;6.90;;;6.20;;
5912;SDS011;2982;42.684;23.356;2023-05-19T12:54:00;6.30;;;5.70;;
5912;SDS011;2982;42.684;23.356;2023-05-19T12:56:27;7.85;;;6.05;;
5912;SDS011;2982;42.684;23.356;2023-05-19T12:58:53;6.05;;;5.55;;
5912;SDS011;2982;42.684;23.356;2023-05-19T13:01:19;6.30;;;5.75;;
5912;SDS011;2982;42.684;23.356;2023-05-19T13:03:44;6.90;;;6.30;;
5912;SDS011;2982;42.684;23.356;2023-05-19T13:06:09;6.45;;;6.05;;
5912;SDS011;2982;42.684;23.356;2023-05-19T13:08:35;7.63;;;5.95;;
5912;SDS011;2982;42.684;23.356;2023-05-19T13:11:01;5.95;;;5.45;;
5912;SDS011;2982;42.684;23.356;2023-05-19T13:13:26;5.75;;;5.28;;
5912;SDS011;2982;42.684;23.356;2023-05-19T13:15:52;5.18;;;4.70;;
5912;SDS011;2982;42.684;23.356;2023-05-19T13:18:17;6.38;;;5.78;;
5912;SDS011;2982;42.684;23.356;2023-05-19T13:20:43;5.53;;;5.03;;
5912;SDS011;2982;42.684;23.356;2023-05-19T13:23:09;5.50;;;4.82;;
5912;SDS011;2982;42.684;23.356;2023-05-19T13:25:35;6.82;;;5.25;;
5912;SDS011;2982;42.684;23.356;2023-05-19T13:28:01;5.10;;;4.78;;
5912;SDS011;2982;42.684;23.356;2023-05-19T13:30:27;6.47;;;5.70;;
5912;SDS011;2982;42.684;23.356;2023-05-19T13:32:52;5.45;;;5.05;;
5912;SDS011;2982;42.684;23.356;2023-05-19T13:35:18;5.75;;;5.25;;
5912;SDS011;2982;42.684;23.356;2023-05-19T13:37:44;5.50;;;5.10;;
5912;SDS011;2982;42.684;23.356;2023-05-19T13:40:09;5.72;;;5.07;;
5912;SDS011;2982;42.684;23.356;2023-05-19T13:42:35;6.93;;;6.00;;
5912;SDS011;2982;42.684;23.356;2023-05-19T13:45:01;5.70;;;4.57;;
5912;SDS011;2982;42.684;23.356;2023-05-19T13:47:27;9.25;;;6.05;;
5912;SDS011;2982;42.684;23.356;2023-05-19T13:49:53;6.53;;;5.78;;
5912;SDS011;2982;42.684;23.356;2023-05-19T13:52:19;11.38;;;5.32;;
5912;SDS011;2982;42.684;23.356;2023-05-19T13:54:45;5.82;;;5.32;;
5912;SDS011;2982;42.684;23.356;2023-05-19T13:57:11;6.32;;;5.75;;
5912;SDS011;2982;42.684;23.356;2023-05-19T13:59:36;6.45;;;5.88;;
5912;SDS011;2982;42.684;23.356;2023-05-19T14:02:02;7.30;;;5.70;;
5912;SDS011;2982;42.684;23.356;2023-05-19T14:04:27;6.90;;;6.28;;
5912;SDS011;2982;42.684;23.356;2023-05-19T14:06:53;6.05;;;5.45;;
5912;SDS011;2982;42.684;23.356;2023-05-19T14:09:19;6.47;;;5.72;;
5912;SDS011;2982;42.684;23.356;2023-05-19T14:11:44;7.00;;;5.63;;
5912;SDS011;2982;42.684;23.356;2023-05-19T14:14:10;6.43;;;5.93;;
5912;SDS011;2982;42.684;23.356;2023-05-19T14:16:35;6.70;;;6.10;;
5912;SDS011;2982;42.684;23.356;2023-05-19T14:19:01;5.80;;;5.38;;
5912;SDS011;2982;42.684;23.356;2023-05-19T14:21:26;6.10;;;5.60;;
5912;SDS011;2982;42.684;23.356;2023-05-19T14:23:51;6.25;;;5.75;;
5912;SDS011;2982;42.684;23.356;2023-05-19T14:26:16;5.65;;;5.15;;
5912;SDS011;2982;42.684;23.356;2023-05-19T14:28:42;6.15;;;5.60;;
5912;SDS011;2982;42.684;23.356;2023-05-19T14:31:10;6.13;;;5.53;;
5912;SDS011;2982;42.684;23.356;2023-05-19T14:33:36;9.65;;;5.70;;
5912;SDS011;2982;42.684;23.356;2023-05-19T14:36:01;6.18;;;5.57;;
5912;SDS011;2982;42.684;23.356;2023-05-19T14:38:27;7.50;;;6.50;;
5912;SDS011;2982;42.684;23.356;2023-05-19T14:40:52;8.25;;;5.85;;
5912;SDS011;2982;42.684;23.356;2023-05-19T14:43:17;6.97;;;6.25;;
5912;SDS011;2982;42.684;23.356;2023-05-19T14:45:43;5.82;;;5.32;;
5912;SDS011;2982;42.684;23.356;2023-05-19T14:48:08;10.55;;;6.10;;
5912;SDS011;2982;42.684;23.356;2023-05-19T14:50:34;6.82;;;6.13;;
5912;SDS011;2982;42.684;23.356;2023-05-19T14:52:59;9.10;;;6.13;;
5912;SDS011;2982;42.684;23.356;2023-05-19T14:55:24;5.80;;;5.40;;
5912;SDS011;2982;42.684;23.356;2023-05-19T14:57:49;7.22;;;6.55;;
5912;SDS011;2982;42.684;23.356;2023-05-19T15:00:15;7.00;;;6.05;;
5912;SDS011;2982;42.684;23.356;2023-05-19T15:02:40;8.93;;;6.45;;
5912;SDS011;2982;42.684;23.356;2023-05-19T15:05:06;6.50;;;5.95;;
5912;SDS011;2982;42.684;23.356;2023-05-19T15:07:31;7.05;;;6.55;;
5912;SDS011;2982;42.684;23.356;2023-05-19T15:09:56;7.20;;;6.13;;
5912;SDS011;2982;42.684;23.356;2023-05-19T15:12:22;6.63;;;5.95;;
5912;SDS011;2982;42.684;23.356;2023-05-19T15:14:47;7.70;;;5.93;;
5912;SDS011;2982;42.684;23.356;2023-05-19T15:17:12;6.38;;;5.65;;
5912;SDS011;2982;42.684;23.356;2023-05-19T15:19:37;7.45;;;6.05;;
5912;SDS011;2982;42.684;23.356;2023-05-19T15:22:03;6.10;;;5.70;;